Αναφορές METAR από Ελληνικά Αεροδρόμια

Σε αυτή τη σελίδα, μπορείτε να παρακολουθείτε τις αναφορές METAR που προέρχονται από τα κυριότερα αεροδρόμια της Ελλάδας. Το περιεχόμενο αποκωδικοποιείται, οπτικοποιείται και γίνεται κατανοητό από τον καθένα με τη χρήση του όμορφου δίγλωσσου γραφικού περιβάλλοντος του meteothes.gr!

Η αρχική κωδικοποιημένη αναφορά, συμπεριλαμβάνεται επίσης στο κάτω μέρος. Σε όποια καθεστερεί η ενημέρωση, το προειδοποιητικό μήνυμα "Μη ενημερωμένο METAR!" εμφανίζεται στο πάνω μέρος της με κόκκινα γράμματα.

Εχουν προστεθεί επίσης δύο αεροδρόμια από γειτονικές χώρες, την Οχρίδα(ΠΓΔΜ) και την Σόφια(Βουλγαρία) για να ελέγχουμε την εξέλιξη των ψυχρών εισβολών από τα Βόρεια!

LGTS - Thessaloniki/Makedonia-Elev 7m
Απόσταση από meteothes.gr: Ν 13km
Ενημερώθηκε: 28/03/2020 12:50
Ασθενής βροχή, Κυρίως νεφελώδης
Ασθενής βροχή, Κυρίως νεφελώδης
 Ανεμος από μεταβλητός
Ανεμος: μεταβλητός 4 km/h
Θερμοκρασία: 10°C
Σημ. Δρόσου: 9°C
Υγρασία: 94%
Βαρόμετρο: 1013 hPa
Συνθήκες: Ασθενής βροχή
Νέφωση: Κυρίως νεφελώδης
Ορατότητα: 6 km
Λεπτομέρειες Νεφών: Μερικώς νεφελώδης 122 m
Κυρίως νεφελώδης 762 m
2020/03/28 10:50 LGTS 281050Z VRB02KT 6000 -RA SCT004 BKN025 10/09 Q1013 NOSIG
LGAV - Athens/Elef. Venizelos-Elev 94m
Απόσταση από meteothes.gr: ΝΝΑ 312km
Ενημερώθηκε: 28/03/2020 12:50
Μερικώς νεφελώδης
Μερικώς νεφελώδης
 Ανεμος από Α
Ανεμος: Α 13 km/h
Θερμοκρασία: 15°C
Σημ. Δρόσου: 7°C
Υγρασία: 59%
Βαρόμετρο: 1013 hPa
Νέφωση: Μερικώς νεφελώδης
Ορατότητα: 10 km
Λεπτομέρειες Νεφών: Διάσπαρτα Nέφη 457 m
Μερικώς νεφελώδης 914 m
2020/03/28 10:50 LGAV 281050Z 10007KT 070V140 9999 FEW015 SCT030 15/07 Q1013 NOSIG
 
LGAL - Alexandroupolis-Elev 3m
Απόσταση από meteothes.gr: Α 251km
Ενημερώθηκε: 28/03/2020 12:50
Μερικώς νεφελώδης
Μερικώς νεφελώδης
 Ανεμος από Α
Ανεμος: Α 17 km/h
Θερμοκρασία: 11°C
Σημ. Δρόσου: 6°C
Υγρασία: 72%
Βαρόμετρο: 1012 hPa
Νέφωση: Μερικώς νεφελώδης
Ορατότητα: 10 km
Λεπτομέρειες Νεφών: Διάσπαρτα Nέφη 457 m
Μερικώς νεφελώδης 1067 m
2020/03/28 10:50 LGAL 281050Z 10009KT 9999 FEW015 SCT035 11/06 Q1012
LGKV - Kavala/Crysoupolis-Elev 5m
Απόσταση από meteothes.gr: ΑΒΑ 144km
Ενημερώθηκε: 28/03/2020 12:50
Κυρίως νεφελώδης
Κυρίως νεφελώδης
 Ανεμος από ΝΔ
Ανεμος: ΝΔ 9 km/h
Θερμοκρασία: 13°C
Σημ. Δρόσου: 8°C
Υγρασία: 72%
Βαρόμετρο: 1012 hPa
Νέφωση: Κυρίως νεφελώδης
Ορατότητα: 10 km
Λεπτομέρειες Νεφών: Διάσπαρτα Nέφη 457 m
Μερικώς νεφελώδης 914 m
Κυρίως νεφελώδης 2134 m
2020/03/28 10:50 LGKV 281050Z 22005KT 9999 FEW015 SCT030 BKN070 13/08 Q1012
 
LGSK - Skiathos Island-Elev 15m
Απόσταση από meteothes.gr: ΝΝΑ 168km
Ενημερώθηκε: 28/03/2020 12:50
Μερικώς νεφελώδης
Μερικώς νεφελώδης
 Ανεμος από ΔΒΔ
Ανεμος: ΔΒΔ 7 km/h
Θερμοκρασία: 14°C
Σημ. Δρόσου: 9°C
Υγρασία: 72%
Βαρόμετρο: 1013 hPa
Νέφωση: Μερικώς νεφελώδης
Ορατότητα: 10 km
Λεπτομέρειες Νεφών: Διάσπαρτα Nέφη 366 m
Μερικώς νεφελώδης 762 m
2020/03/28 10:50 LGSK 281050Z 30004KT 9999 FEW012 SCT025 14/09 Q1013
LGLM - Limnos Island-Elev 5m
Απόσταση από meteothes.gr: ΑΝΑ 210km
Ενημερώθηκε: 28/03/2020 12:50
Ασθενής βροχή, Μερικώς νεφελώδης
Ασθενής βροχή, Μερικώς νεφελώδης
 Ανεμος από άπνοια
Ανεμος: άπνοια
Θερμοκρασία: 10°C
Σημ. Δρόσου: 7°C
Υγρασία: 82%
Βαρόμετρο: 1013 hPa
Συνθήκες: Ασθενής βροχή
Νέφωση: Μερικώς νεφελώδης
Ορατότητα: 8 km
Λεπτομέρειες Νεφών: Διάσπαρτα Nέφη 305 m
Μερικώς νεφελώδης 762 m
2020/03/28 10:50 LGLM 281050Z 00000KT 8000 -RA FEW010 SCT025 10/07 Q1013
 
LGMT - Mitilini Island-Elev 17m
Απόσταση από meteothes.gr: ΑΝΑ 358km
Ενημερώθηκε: 28/03/2020 12:50
Ψεκάδες, Κυρίως νεφελώδης
Ψεκάδες, Κυρίως νεφελώδης
 Ανεμος από ΒΔ
Ανεμος: ΒΔ 11 km/h
Θερμοκρασία: 12°C
Σημ. Δρόσου: 9°C
Υγρασία: 82%
Βαρόμετρο: 1012 hPa
Συνθήκες: Ψεκάδες
Νέφωση: Κυρίως νεφελώδης
Ορατότητα: 7 km
Λεπτομέρειες Νεφών: Διάσπαρτα Nέφη 427 m
Κυρίως νεφελώδης 762 m
2020/03/28 10:50 LGMT 281050Z 32006KT 7000 DZ FEW014 BKN025 12/09 Q1012
LGSY - Skiros Island-Elev 15m
Απόσταση από meteothes.gr: ΝΑ 227km
Ενημερώθηκε: 28/03/2020 12:50
Κυρίως νεφελώδης
Κυρίως νεφελώδης
 Ανεμος από μεταβλητός
Ανεμος: μεταβλητός 4 km/h
Θερμοκρασία: 12°C
Σημ. Δρόσου: 9°C
Υγρασία: 82%
Βαρόμετρο: 1013 hPa
Νέφωση: Κυρίως νεφελώδης
Ορατότητα: 10 km
Λεπτομέρειες Νεφών: Διάσπαρτα Nέφη 305 m
Κυρίως νεφελώδης 549 m
2020/03/28 10:50 LGSY 281050Z VRB02KT 9999 FEW010 BKN018 12/09 Q1013 WHT
 
LGKZ - Kozani-Elev 628m
Απόσταση από meteothes.gr: ΔΝΔ 102km
Ενημερώθηκε: 28/03/2020 12:50
Συννεφιά
Συννεφιά
 Ανεμος από ΝΑ
Ανεμος: ΝΑ 7 km/h
Θερμοκρασία: 8°C
Αίσθηση Ψύχρας: 7°C
Σημ. Δρόσου: 5°C
Υγρασία: 82%
Βαρόμετρο: 1013 hPa
Νέφωση: Συννεφιά
Ορατότητα: 10 km
Λεπτομέρειες Νεφών: Διάσπαρτα Nέφη 183 m
Κυρίως νεφελώδης 610 m
Συννεφιά 2134 m
2020/03/28 10:50 LGKZ 281050Z 14004KT 9999 FEW006 BKN020 OVC070 08/05 Q1013
LGIO - Ioannina-Elev 476m
Απόσταση από meteothes.gr: ΔΝΔ 209km
Ενημερώθηκε: 28/03/2020 12:50
Ασθενής βροχή, Κυρίως νεφελώδης
Ασθενής βροχή, Κυρίως νεφελώδης
 Ανεμος από ΑΝΑ
Ανεμος: ΑΝΑ 11 km/h
Θερμοκρασία: 11°C
Σημ. Δρόσου: 3°C
Υγρασία: 58%
Βαρόμετρο: 1013 hPa
Συνθήκες: Ασθενής βροχή
Νέφωση: Κυρίως νεφελώδης
Ορατότητα: 10 km
Λεπτομέρειες Νεφών: Διάσπαρτα Nέφη 1524 m
Κυρίως νεφελώδης 2438 m
2020/03/28 10:50 LGIO 281050Z 12006KT 9999 -RA FEW050 BKN080 11/03 Q1013
 
LGZA - Zakinthos-Elev 3m
Απόσταση από meteothes.gr: ΝΝΔ 367km
Ενημερώθηκε: 28/03/2020 12:50
Κυρίως νεφελώδης
Κυρίως νεφελώδης
 Ανεμος από ΔΝΔ
Ανεμος: ΔΝΔ 19 km/h
Θερμοκρασία: 14°C
Σημ. Δρόσου: 11°C
Υγρασία: 82%
Βαρόμετρο: 1012 hPa
Νέφωση: Κυρίως νεφελώδης
Ορατότητα: 10 km
Λεπτομέρειες Νεφών: Διάσπαρτα Nέφη 549 m
Κυρίως νεφελώδης 610 m
2020/03/28 10:50 LGZA 281050Z 24010KT 9999 FEW018TCU BKN020 14/11 Q1012
LGKR - Corfu Island-Elev 2m
Απόσταση από meteothes.gr: ΔΝΔ 282km
Ενημερώθηκε: 28/03/2020 12:50
Διάσπαρτα Nέφη
Διάσπαρτα Nέφη
 Ανεμος από ΝΝΑ
Ανεμος: ΝΝΑ 9 km/h
Θερμοκρασία: 17°C
Σημ. Δρόσου: 7°C
Υγρασία: 52%
Βαρόμετρο: 1012 hPa
Νέφωση: Διάσπαρτα Nέφη
Ορατότητα: 10 km
Λεπτομέρειες Νεφών: Διάσπαρτα Nέφη 914 m
2020/03/28 10:50 LGKR 281050Z 16005KT 9999 FEW030 17/07 Q1012 NOSIG
 
LGSO - Syros Island-Elev 72m
Απόσταση από meteothes.gr: ΝΝΑ 397km
Ενημερώθηκε: 28/03/2020 11:50
ΜΗ Ενημερωμένο METAR!
Μερικώς νεφελώδης
Μερικώς νεφελώδης
 Ανεμος από ΒΑ
Ανεμος: ΒΑ 13 km/h
Θερμοκρασία: 15°C
Σημ. Δρόσου: 8°C
Υγρασία: 63%
Βαρόμετρο: 1013 hPa
Νέφωση: Μερικώς νεφελώδης
Ορατότητα: 10 km
Λεπτομέρειες Νεφών: Μερικώς νεφελώδης 457 m
2020/03/28 09:50 LGSO 280950Z 04007KT 9999 SCT015 15/08 Q1013
LGMK - Mikonos Island-Elev 123m
Απόσταση από meteothes.gr: ΝΝΑ 412km
Ενημερώθηκε: 28/03/2020 11:50
ΜΗ Ενημερωμένο METAR!
Μερικώς νεφελώδης
Μερικώς νεφελώδης
 Ανεμος από ΔΒΔ
Ανεμος: ΔΒΔ 9 km/h
Θερμοκρασία: 15°C
Σημ. Δρόσου: 8°C
Υγρασία: 63%
Βαρόμετρο: 1013 hPa
Νέφωση: Μερικώς νεφελώδης
Ορατότητα: 10 km
Λεπτομέρειες Νεφών: Μερικώς νεφελώδης 488 m
2020/03/28 09:50 LGMK 280950Z 29005KT 9999 SCT016 15/08 Q1013
 
LGSR - Santorini Island-Elev 40m
Απόσταση από meteothes.gr: ΝΝΑ 520km
Ενημερώθηκε: 28/03/2020 12:50
Διάσπαρτα Nέφη
Διάσπαρτα Nέφη
 Ανεμος από Δ
Ανεμος: Δ 20 km/h
Θερμοκρασία: 17°C
Σημ. Δρόσου: 8°C
Υγρασία: 56%
Βαρόμετρο: 1014 hPa
Νέφωση: Διάσπαρτα Nέφη
Ορατότητα: 10 km
Λεπτομέρειες Νεφών: Διάσπαρτα Nέφη 762 m
2020/03/28 10:50 LGSR 281050Z 27011KT 9999 FEW025 17/08 Q1014
LGKL - Kalamata-Elev 8m
Απόσταση από meteothes.gr: Ν 405km
Ενημερώθηκε: 28/03/2020 12:50
Μερικώς νεφελώδης
Μερικώς νεφελώδης
 Ανεμος από ΝΝΑ
Ανεμος: ΝΝΑ 15 km/h
Θερμοκρασία: 16°C
Σημ. Δρόσου: 10°C
Υγρασία: 68%
Βαρόμετρο: 1013 hPa
Νέφωση: Μερικώς νεφελώδης
Ορατότητα: 10 km
Λεπτομέρειες Νεφών: Μερικώς νεφελώδης 914 m
Μερικώς νεφελώδης 1219 m
2020/03/28 10:50 LGKL 281050Z 15008KT 9999 SCT030 SCT040 16/10 Q1013
 
LGIR - Iraklion/Crete-Elev 5m
Απόσταση από meteothes.gr: ΝΝΑ 622km
Ενημερώθηκε: 28/03/2020 12:50
Διάσπαρτα Nέφη
Διάσπαρτα Nέφη
 Ανεμος από ΒΒΑ
Ανεμος: ΒΒΑ 11 km/h
Θερμοκρασία: 18°C
Σημ. Δρόσου: 6°C
Υγρασία: 46%
Βαρόμετρο: 1013 hPa
Νέφωση: Διάσπαρτα Nέφη
Ορατότητα: 10 km
Λεπτομέρειες Νεφών: Διάσπαρτα Nέφη 762 m
2020/03/28 10:50 LGIR 281050Z 02006KT 9999 FEW025 18/06 Q1013 NOSIG
LGRP - Rhodes-Elev 5m
Απόσταση από meteothes.gr: ΝΑ 649km
Ενημερώθηκε: 28/03/2020 12:50
Μερικώς νεφελώδης
Μερικώς νεφελώδης
 Ανεμος από Δ
Ανεμος: Δ 31 km/h
Θερμοκρασία: 17°C
Σημ. Δρόσου: 11°C
Υγρασία: 68%
Βαρόμετρο: 1013 hPa
Νέφωση: Μερικώς νεφελώδης
Ορατότητα: 10 km
Λεπτομέρειες Νεφών: Μερικώς νεφελώδης 610 m
2020/03/28 10:50 LGRP 281050Z 26017KT 9999 SCT020 17/11 Q1013 NOSIG
 
LWOH - Ohrid/FYROM-Elev 761m
Απόσταση από meteothes.gr: ΔΒΔ 188km
Ενημερώθηκε: 28/03/2020 13:00
Κυρίως νεφελώδης
Κυρίως νεφελώδης
 Ανεμος από ΝΝΑ
Ανεμος: ΝΝΑ 6 km/h
Θερμοκρασία: 8°C
Σημ. Δρόσου: 3°C
Υγρασία: 71%
Βαρόμετρο: 1012 hPa
Νέφωση: Κυρίως νεφελώδης
Ορατότητα: 10 km
Λεπτομέρειες Νεφών: Μερικώς νεφελώδης 1097 m
Κυρίως νεφελώδης 1219 m
2020/03/28 11:00 LWOH 281100Z 15003KT 9999 SCT036 BKN040 08/03 Q1012
LBSF - Sofia/Bulgaria-Elev 595m
Απόσταση από meteothes.gr: Β 227km
Ενημερώθηκε: 28/03/2020 13:00
Μερικώς νεφελώδης
Μερικώς νεφελώδης
 Ανεμος από μεταβλητός
Ανεμος: μεταβλητός 7 km/h
Θερμοκρασία: 12°C
Σημ. Δρόσου: 1°C
Υγρασία: 47%
Βαρόμετρο: 1012 hPa
Νέφωση: Μερικώς νεφελώδης
Ορατότητα: 8 km
Λεπτομέρειες Νεφών: Μερικώς νεφελώδης 1006 m
2020/03/28 11:00 LBSF 281100Z VRB04KT 8000 SCT033 12/01 Q1012 NOSIG

(*) Μερικές αναφορές παρουσιάζουν λιγότερα στοιχεία γιατί οι αρχικές είναι ελλιπείς ή έχουν λάθος μορφοποίηση!

Please disable your adblock and script blockers to view this page